CheckWX is a tool to help pilots better visualize weather data.  It is not intended as a substitute for an official pre-flight weather briefing.

21:23:20 UTC

KSJX METAR
Beaver Island Airport
Beaver Island, Michigan, USA
Current

7 mins ago

KSJX 232116Z AUTO 07011G17KT 5SM -SN SCT025 BKN045 OVC065 00/M02 A2995 RMK AO2 T00001025
Observed
Feb-23 @ 21:16 UTC
Wind
  • 070° at 11 KTS
  • Gusting to 17 KTS
Visibility
5 SM
Flight Rules
MVFR
Conditions
Light Snow
Cloud Levels
  • Scattered at 2,500' AGL
  • Broken at 4,500' AGL
  • Overcast at 6,500' AGL
Temperature
C / 32°F
Dewpoint
-3°C / 27°F
Humidity
80%
Altimeter
29.95" Hg
Pressure
1014.22 hPa
Previous

28 mins ago

KSJX 232055Z AUTO 07008KT 10SM SCT021 BKN033 OVC060 00/M02 A2998 RMK AO2 T00001025
Observed
Feb-23 @ 20:55 UTC
Wind
  • 070° at 8 KTS
Visibility
10 SM
Flight Rules
VFR
Cloud Levels
  • Scattered at 2,100' AGL
  • Broken at 3,300' AGL
  • Overcast at 6,000' AGL
Temperature
C / 32°F
Dewpoint
-3°C / 27°F
Humidity
80%
Altimeter
29.98" Hg
Pressure
1015.22 hPa
Previous

48 mins ago

KSJX 232035Z AUTO 04008KT 10SM OVC060 00/M02 A2999 RMK AO2 T00021025
Observed
Feb-23 @ 20:35 UTC
Wind
  • 040° at 8 KTS
Visibility
10 SM
Flight Rules
VFR
Cloud Levels
  • Overcast at 6,000' AGL
Temperature
C / 32°F
Dewpoint
-3°C / 27°F
Humidity
80%
Altimeter
29.99" Hg
Pressure
1015.62 hPa